FLX716 KIAH-MMUN
Flight info
| Callsign | FLX716 |
|---|---|
| Flight time | N/A |
| Altitude | 37000 |
| Route | FLYZA5 KELPP A766 KEHLI UL209 BETAS DCT VOMAR VOMAR1A |
| Aircraft | B77W/H-SDE1E2E3FGHIJ2J3J4J5M1RWXY/LB1D1 |
Departure
| Time | 2026-05-05 23:19 |
|---|---|
| Airport | George Bush Intercontinental Airport (KIAH) |
Arrival
| Time | N/A |
|---|---|
| Airport | Cancún International Airport (MMUN) |
| Time | Latitude | Longitude | Altitude | Speed | Heading |
|---|---|---|---|---|---|
| 2026-05-05 22:55 | 29.99002 | -95.33569 | 107 ft | 0 kts | 227° |
| 2026-05-05 23:06 | 29.99003 | -95.33568 | 107 ft | 1 kts | 227° |
| 2026-05-05 23:07 | 29.99013 | -95.33556 | 107 ft | 2 kts | 227° |
| 2026-05-05 23:07 | 29.99023 | -95.33543 | 107 ft | 2 kts | 227° |
| 2026-05-05 23:07 | 29.99033 | -95.33531 | 107 ft | 2 kts | 227° |
| 2026-05-05 23:07 | 29.99044 | -95.33519 | 107 ft | 2 kts | 227° |
| 2026-05-05 23:08 | 29.99054 | -95.33505 | 107 ft | 2 kts | 227° |
| 2026-05-05 23:08 | 29.99065 | -95.33493 | 107 ft | 2 kts | 226° |
| 2026-05-05 23:08 | 29.99075 | -95.33480 | 107 ft | 2 kts | 227° |
| 2026-05-05 23:08 | 29.99084 | -95.33467 | 106 ft | 2 kts | 244° |
| 2026-05-05 23:09 | 29.99089 | -95.33451 | 107 ft | 2 kts | 262° |
| 2026-05-05 23:09 | 29.99090 | -95.33441 | 106 ft | 0 kts | 271° |
| 2026-05-05 23:09 | 29.99090 | -95.33437 | 106 ft | 0 kts | 271° |
| 2026-05-05 23:11 | 29.99090 | -95.33440 | 106 ft | 1 kts | 271° |
| 2026-05-05 23:11 | 29.99090 | -95.33471 | 106 ft | 6 kts | 269° |
| 2026-05-05 23:11 | 29.99089 | -95.33535 | 106 ft | 9 kts | 269° |
| 2026-05-05 23:12 | 29.99088 | -95.33628 | 107 ft | 13 kts | 270° |
| 2026-05-05 23:12 | 29.99088 | -95.33744 | 107 ft | 14 kts | 270° |
| 2026-05-05 23:12 | 29.99088 | -95.33857 | 107 ft | 13 kts | 270° |
| 2026-05-05 23:12 | 29.99087 | -95.33962 | 107 ft | 12 kts | 269° |
| 2026-05-05 23:13 | 29.99088 | -95.34061 | 107 ft | 12 kts | 272° |
| 2026-05-05 23:13 | 29.99091 | -95.34160 | 107 ft | 12 kts | 269° |
| 2026-05-05 23:13 | 29.99089 | -95.34260 | 107 ft | 12 kts | 269° |
| 2026-05-05 23:13 | 29.99089 | -95.34360 | 107 ft | 12 kts | 270° |
| 2026-05-05 23:14 | 29.99088 | -95.34461 | 107 ft | 12 kts | 269° |
| 2026-05-05 23:14 | 29.99087 | -95.34566 | 107 ft | 13 kts | 269° |
| 2026-05-05 23:14 | 29.99086 | -95.34670 | 107 ft | 13 kts | 270° |
| 2026-05-05 23:14 | 29.99087 | -95.34776 | 106 ft | 13 kts | 270° |
| 2026-05-05 23:15 | 29.99088 | -95.34885 | 106 ft | 14 kts | 270° |
| 2026-05-05 23:15 | 29.99087 | -95.35005 | 103 ft | 15 kts | 270° |
| 2026-05-05 23:15 | 29.99087 | -95.35132 | 103 ft | 15 kts | 269° |
| 2026-05-05 23:15 | 29.99087 | -95.35255 | 105 ft | 14 kts | 270° |
| 2026-05-05 23:16 | 29.99087 | -95.35371 | 105 ft | 14 kts | 270° |
| 2026-05-05 23:16 | 29.99087 | -95.35485 | 105 ft | 13 kts | 270° |
| 2026-05-05 23:16 | 29.99088 | -95.35590 | 105 ft | 10 kts | 272° |
| 2026-05-05 23:16 | 29.99082 | -95.35619 | 105 ft | 2 kts | 215° |
| 2026-05-05 23:17 | 29.99067 | -95.35619 | 105 ft | 3 kts | 163° |
| 2026-05-05 23:17 | 29.99035 | -95.35602 | 104 ft | 7 kts | 153° |
| 2026-05-05 23:17 | 29.98981 | -95.35570 | 103 ft | 9 kts | 153° |
| 2026-05-05 23:17 | 29.98924 | -95.35541 | 103 ft | 7 kts | 178° |
| 2026-05-05 23:18 | 29.98880 | -95.35577 | 103 ft | 9 kts | 233° |
| 2026-05-05 23:18 | 29.98843 | -95.35646 | 103 ft | 11 kts | 240° |
| 2026-05-05 23:18 | 29.98805 | -95.35723 | 103 ft | 10 kts | 241° |
| 2026-05-05 23:18 | 29.98753 | -95.35762 | 103 ft | 9 kts | 172° |
| 2026-05-05 23:19 | 29.98695 | -95.35731 | 103 ft | 11 kts | 151° |
| 2026-05-05 23:19 | 29.98449 | -95.35580 | 103 ft | 77 kts | 152° |
| 2026-05-05 23:19 | 29.97744 | -95.35149 | 107 ft | 148 kts | 152° |
| 2026-05-05 23:19 | 29.96792 | -95.34552 | 718 ft | 159 kts | 152° |
| 2026-05-05 23:20 | 29.95975 | -95.33697 | 1426 ft | 166 kts | 136° |
| 2026-05-05 23:20 | 29.95207 | -95.32649 | 1790 ft | 182 kts | 135° |
| 2026-05-05 23:20 | 29.94351 | -95.31477 | 2123 ft | 200 kts | 135° |
| 2026-05-05 23:20 | 29.93409 | -95.30187 | 2527 ft | 220 kts | 134° |
| 2026-05-05 23:21 | 29.92390 | -95.28786 | 2990 ft | 237 kts | 134° |
| 2026-05-05 23:21 | 29.91285 | -95.27266 | 3490 ft | 255 kts | 134° |
| 2026-05-05 23:21 | 29.90119 | -95.25656 | 3924 ft | 265 kts | 134° |
| 2026-05-05 23:21 | 29.88953 | -95.24038 | 3986 ft | 265 kts | 133° |
| 2026-05-05 23:22 | 29.87806 | -95.22295 | 4291 ft | 280 kts | 128° |
| 2026-05-05 23:22 | 29.86695 | -95.20464 | 4904 ft | 281 kts | 129° |
| 2026-05-05 23:22 | 29.85563 | -95.18620 | 4984 ft | 277 kts | 129° |
| 2026-05-05 23:22 | 29.84458 | -95.16839 | 4996 ft | 274 kts | 129° |
| 2026-05-05 23:23 | 29.83350 | -95.15060 | 4987 ft | 273 kts | 130° |
| 2026-05-05 23:23 | 29.82139 | -95.13364 | 4988 ft | 269 kts | 141° |
| 2026-05-05 23:23 | 29.80641 | -95.11959 | 5492 ft | 280 kts | 146° |
| 2026-05-05 23:23 | 29.79092 | -95.10739 | 6447 ft | 272 kts | 157° |
| 2026-05-05 23:24 | 29.77335 | -95.09869 | 7192 ft | 275 kts | 161° |
| 2026-05-05 23:24 | 29.75567 | -95.09052 | 7954 ft | 277 kts | 161° |
| 2026-05-05 23:24 | 29.73776 | -95.08228 | 8672 ft | 280 kts | 161° |
| 2026-05-05 23:24 | 29.71948 | -95.07388 | 9338 ft | 285 kts | 161° |
| 2026-05-05 23:25 | 29.70085 | -95.06532 | 10019 ft | 290 kts | 161° |
| 2026-05-05 23:25 | 29.68187 | -95.05661 | 10486 ft | 304 kts | 161° |
| 2026-05-05 23:25 | 29.66157 | -95.04732 | 10858 ft | 322 kts | 161° |
| 2026-05-05 23:25 | 29.64036 | -95.03761 | 11258 ft | 339 kts | 161° |
| 2026-05-05 23:26 | 29.61772 | -95.02725 | 11678 ft | 356 kts | 161° |
| 2026-05-05 23:26 | 29.59427 | -95.01652 | 12123 ft | 372 kts | 161° |
| 2026-05-05 23:26 | 29.56976 | -95.00529 | 12592 ft | 387 kts | 162° |
| 2026-05-05 23:26 | 29.54412 | -94.99354 | 13112 ft | 401 kts | 162° |
| 2026-05-05 23:27 | 29.51812 | -94.98163 | 13846 ft | 410 kts | 162° |
| 2026-05-05 23:27 | 29.49132 | -94.96935 | 14700 ft | 415 kts | 162° |
| 2026-05-05 23:27 | 29.46457 | -94.95709 | 15640 ft | 420 kts | 162° |
| 2026-05-05 23:27 | 29.43722 | -94.94456 | 16501 ft | 426 kts | 163° |
| 2026-05-05 23:28 | 29.40971 | -94.93198 | 17293 ft | 434 kts | 163° |
| 2026-05-05 23:28 | 29.38132 | -94.91898 | 18116 ft | 441 kts | 163° |
| 2026-05-05 23:28 | 29.35272 | -94.90590 | 18910 ft | 447 kts | 163° |
| 2026-05-05 23:28 | 29.32379 | -94.89266 | 19731 ft | 452 kts | 164° |
| 2026-05-05 23:29 | 29.29483 | -94.87751 | 20508 ft | 464 kts | 156° |
| 2026-05-05 23:29 | 29.26785 | -94.85715 | 21237 ft | 477 kts | 147° |
| 2026-05-05 23:29 | 29.24311 | -94.83127 | 21933 ft | 491 kts | 137° |
| 2026-05-05 23:29 | 29.22104 | -94.80084 | 22630 ft | 501 kts | 132° |
| 2026-05-05 23:30 | 29.19937 | -94.76906 | 23317 ft | 507 kts | 132° |
| 2026-05-05 23:30 | 29.17751 | -94.73705 | 23972 ft | 514 kts | 132° |
| 2026-05-05 23:30 | 29.15547 | -94.70495 | 24692 ft | 519 kts | 132° |
| 2026-05-05 23:30 | 29.13322 | -94.67266 | 25417 ft | 523 kts | 133° |
| 2026-05-05 23:31 | 29.11057 | -94.63992 | 26053 ft | 530 kts | 133° |
| 2026-05-05 23:31 | 29.08742 | -94.60654 | 26709 ft | 536 kts | 133° |
| 2026-05-05 23:31 | 29.06432 | -94.57330 | 27445 ft | 539 kts | 133° |
| 2026-05-05 23:31 | 29.04106 | -94.53989 | 28113 ft | 544 kts | 133° |
| 2026-05-05 23:32 | 29.01717 | -94.50563 | 28764 ft | 550 kts | 133° |
| 2026-05-05 23:32 | 28.99350 | -94.47173 | 29405 ft | 554 kts | 133° |
| 2026-05-05 23:32 | 28.96938 | -94.43719 | 30322 ft | 551 kts | 133° |
| 2026-05-05 23:32 | 28.94574 | -94.40335 | 31417 ft | 543 kts | 134° |
| 2026-05-05 23:33 | 28.92253 | -94.37014 | 32563 ft | 533 kts | 134° |
| 2026-05-05 23:33 | 28.89985 | -94.33776 | 33509 ft | 528 kts | 134° |
| 2026-05-05 23:33 | 28.87664 | -94.30470 | 34147 ft | 529 kts | 134° |
| 2026-05-05 23:33 | 28.85390 | -94.27236 | 34668 ft | 532 kts | 134° |
| 2026-05-05 23:34 | 28.83060 | -94.23923 | 35252 ft | 533 kts | 134° |
| 2026-05-05 23:34 | 28.80749 | -94.20638 | 35946 ft | 532 kts | 134° |
| 2026-05-05 23:34 | 28.78431 | -94.17344 | 36637 ft | 529 kts | 133° |
| 2026-05-05 23:34 | 28.76120 | -94.14068 | 36842 ft | 535 kts | 133° |
| 2026-05-05 23:35 | 28.71305 | -94.07250 | 36847 ft | 551 kts | 133° |
| 2026-05-05 23:35 | 28.66422 | -94.00342 | 36848 ft | 558 kts | 133° |
| 2026-05-05 23:36 | 28.61551 | -93.93457 | 36851 ft | 557 kts | 133° |
| 2026-05-05 23:36 | 28.56723 | -93.86646 | 36852 ft | 557 kts | 133° |
| 2026-05-05 23:37 | 28.51858 | -93.79796 | 36855 ft | 557 kts | 133° |
| 2026-05-05 23:37 | 28.46991 | -93.72953 | 36862 ft | 556 kts | 133° |
| 2026-05-05 23:38 | 28.42132 | -93.66134 | 36865 ft | 555 kts | 133° |
| 2026-05-05 23:38 | 28.37284 | -93.59340 | 36875 ft | 554 kts | 133° |
| 2026-05-05 23:39 | 28.32406 | -93.52517 | 36882 ft | 554 kts | 133° |
| 2026-05-05 23:39 | 28.27562 | -93.45750 | 36884 ft | 554 kts | 133° |
| 2026-05-05 23:40 | 28.22687 | -93.38953 | 36886 ft | 555 kts | 133° |
| 2026-05-05 23:40 | 28.17811 | -93.32165 | 36872 ft | 553 kts | 133° |
| 2026-05-05 23:41 | 28.12926 | -93.25374 | 36880 ft | 552 kts | 133° |
| 2026-05-05 23:41 | 28.08084 | -93.18655 | 36882 ft | 552 kts | 133° |
| 2026-05-05 23:42 | 28.03248 | -93.11955 | 36884 ft | 552 kts | 133° |
| 2026-05-05 23:42 | 27.98380 | -93.05220 | 36883 ft | 551 kts | 133° |
| 2026-05-05 23:43 | 27.93546 | -92.98544 | 36889 ft | 552 kts | 133° |
| 2026-05-05 23:43 | 27.88664 | -92.91811 | 36894 ft | 553 kts | 133° |
| 2026-05-05 23:44 | 27.83817 | -92.85136 | 36895 ft | 552 kts | 133° |
| 2026-05-05 23:44 | 27.78920 | -92.78404 | 36897 ft | 551 kts | 133° |
| 2026-05-05 23:45 | 27.74041 | -92.71708 | 36898 ft | 550 kts | 133° |
| 2026-05-05 23:45 | 27.69167 | -92.65028 | 36900 ft | 551 kts | 133° |
| 2026-05-05 23:46 | 27.64317 | -92.58392 | 36904 ft | 551 kts | 133° |
| 2026-05-05 23:46 | 27.60113 | -92.52647 | 36904 ft | 551 kts | 132° |
| 2026-05-05 23:47 | 27.55218 | -92.45968 | 36909 ft | 551 kts | 132° |
| 2026-05-05 23:47 | 27.50333 | -92.39313 | 36908 ft | 551 kts | 132° |
| 2026-05-05 23:48 | 27.45432 | -92.32647 | 36897 ft | 552 kts | 133° |
| 2026-05-05 23:48 | 27.40529 | -92.25987 | 36902 ft | 551 kts | 133° |
| 2026-05-05 23:49 | 27.35602 | -92.19307 | 36905 ft | 550 kts | 133° |
| 2026-05-05 23:49 | 27.30734 | -92.12715 | 36904 ft | 551 kts | 133° |
| 2026-05-05 23:50 | 27.25805 | -92.06052 | 36908 ft | 551 kts | 132° |
| 2026-05-05 23:50 | 27.20922 | -91.99460 | 36909 ft | 550 kts | 133° |
| 2026-05-05 23:51 | 27.15494 | -91.93415 | 36912 ft | 545 kts | 146° |
| 2026-05-05 23:51 | 27.09390 | -91.88393 | 36916 ft | 543 kts | 148° |
| 2026-05-05 23:52 | 27.03237 | -91.83415 | 36919 ft | 544 kts | 147° |
| 2026-05-05 23:52 | 26.97067 | -91.78442 | 36919 ft | 543 kts | 148° |
| 2026-05-05 23:53 | 26.90906 | -91.73486 | 36923 ft | 543 kts | 148° |
| 2026-05-05 23:53 | 26.84772 | -91.68564 | 36922 ft | 542 kts | 148° |
| 2026-05-05 23:54 | 26.78625 | -91.63640 | 36935 ft | 543 kts | 148° |
| 2026-05-05 23:54 | 26.72448 | -91.58700 | 36937 ft | 543 kts | 147° |
| 2026-05-05 23:55 | 26.66314 | -91.53801 | 36933 ft | 542 kts | 147° |
| 2026-05-05 23:55 | 26.60128 | -91.48868 | 36931 ft | 543 kts | 147° |
| 2026-05-05 23:56 | 26.54013 | -91.43997 | 36928 ft | 542 kts | 147° |
| 2026-05-05 23:56 | 26.47839 | -91.39087 | 36929 ft | 542 kts | 147° |
| 2026-05-05 23:57 | 26.41718 | -91.34225 | 36926 ft | 544 kts | 148° |
| 2026-05-05 23:57 | 26.35522 | -91.29311 | 36918 ft | 543 kts | 148° |
| 2026-05-05 23:58 | 26.29312 | -91.24392 | 36922 ft | 543 kts | 148° |
| 2026-05-05 23:58 | 26.23110 | -91.19486 | 36926 ft | 543 kts | 147° |
| 2026-05-05 23:59 | 26.16979 | -91.14642 | 36926 ft | 542 kts | 148° |
| 2026-05-05 23:59 | 26.10780 | -91.09752 | 36929 ft | 544 kts | 148° |
| 2026-05-06 00:00 | 26.04583 | -91.04869 | 36931 ft | 544 kts | 148° |
| 2026-05-06 00:00 | 25.98385 | -90.99992 | 36930 ft | 545 kts | 147° |
| 2026-05-06 00:01 | 25.92124 | -90.95072 | 36932 ft | 545 kts | 147° |
| 2026-05-06 00:01 | 25.85946 | -90.90223 | 36925 ft | 543 kts | 147° |
| 2026-05-06 00:02 | 25.79744 | -90.85362 | 36929 ft | 543 kts | 147° |
| 2026-05-06 00:02 | 25.73550 | -90.80514 | 36929 ft | 542 kts | 147° |
| 2026-05-06 00:03 | 25.67392 | -90.75700 | 36938 ft | 542 kts | 147° |
| 2026-05-06 00:03 | 25.61196 | -90.70863 | 36936 ft | 542 kts | 147° |
| 2026-05-06 00:04 | 25.55027 | -90.66053 | 36942 ft | 542 kts | 147° |
| 2026-05-06 00:04 | 25.48870 | -90.61258 | 36941 ft | 541 kts | 147° |
| 2026-05-06 00:05 | 25.39609 | -90.54059 | 36947 ft | 542 kts | 147° |
| 2026-05-06 00:06 | 25.33444 | -90.49272 | 36947 ft | 540 kts | 147° |
| 2026-05-06 00:06 | 25.27274 | -90.44488 | 36945 ft | 539 kts | 147° |
| 2026-05-06 00:07 | 25.21125 | -90.39728 | 36935 ft | 539 kts | 147° |
| 2026-05-06 00:07 | 25.14992 | -90.34986 | 36934 ft | 539 kts | 147° |
| 2026-05-06 00:08 | 25.08833 | -90.30229 | 36926 ft | 540 kts | 147° |
| 2026-05-06 00:08 | 25.02653 | -90.25462 | 36932 ft | 539 kts | 147° |
| 2026-05-06 00:09 | 24.96494 | -90.20718 | 36943 ft | 539 kts | 147° |
| 2026-05-06 00:09 | 24.90321 | -90.15967 | 36947 ft | 539 kts | 147° |
| 2026-05-06 00:10 | 24.84177 | -90.11246 | 36940 ft | 538 kts | 147° |
| 2026-05-06 00:10 | 24.78010 | -90.06512 | 36942 ft | 539 kts | 147° |
| 2026-05-06 00:11 | 24.71846 | -90.01787 | 36944 ft | 539 kts | 147° |
| 2026-05-06 00:11 | 24.65687 | -89.97072 | 36943 ft | 539 kts | 147° |
| 2026-05-06 00:12 | 24.59501 | -89.92342 | 36942 ft | 539 kts | 147° |
| 2026-05-06 00:12 | 24.53298 | -89.87727 | 36940 ft | 538 kts | 152° |
| 2026-05-06 00:13 | 24.46359 | -89.84643 | 36942 ft | 530 kts | 169° |
| 2026-05-06 00:13 | 24.39050 | -89.83643 | 36944 ft | 527 kts | 180° |
| 2026-05-06 00:14 | 24.31711 | -89.83212 | 36943 ft | 527 kts | 180° |
| 2026-05-06 00:14 | 24.24382 | -89.82809 | 36942 ft | 527 kts | 180° |
| 2026-05-06 00:15 | 24.17059 | -89.82418 | 36940 ft | 525 kts | 180° |
| 2026-05-06 00:15 | 24.09687 | -89.82031 | 36936 ft | 526 kts | 180° |
| 2026-05-06 00:16 | 24.02364 | -89.81650 | 36923 ft | 524 kts | 180° |
| 2026-05-06 00:16 | 23.95022 | -89.81271 | 36917 ft | 526 kts | 180° |
| 2026-05-06 00:17 | 23.87732 | -89.80896 | 36912 ft | 527 kts | 180° |
| 2026-05-06 00:17 | 23.80397 | -89.80519 | 36908 ft | 526 kts | 180° |
| 2026-05-06 00:18 | 23.73074 | -89.80142 | 36904 ft | 525 kts | 180° |
| 2026-05-06 00:18 | 23.65716 | -89.79751 | 36907 ft | 525 kts | 180° |
| 2026-05-06 00:19 | 23.58388 | -89.79363 | 36905 ft | 525 kts | 180° |
| 2026-05-06 00:19 | 23.51037 | -89.78973 | 36906 ft | 526 kts | 180° |
| 2026-05-06 00:20 | 23.43680 | -89.78584 | 36911 ft | 526 kts | 179° |
| 2026-05-06 00:20 | 23.36353 | -89.78198 | 36913 ft | 525 kts | 180° |
| 2026-05-06 00:21 | 23.29057 | -89.77813 | 36916 ft | 525 kts | 179° |
| 2026-05-06 00:21 | 23.21758 | -89.77429 | 36916 ft | 524 kts | 179° |
| 2026-05-06 00:22 | 23.14432 | -89.77044 | 36915 ft | 523 kts | 179° |
| 2026-05-06 00:22 | 23.07114 | -89.76659 | 36914 ft | 524 kts | 179° |
| 2026-05-06 00:23 | 22.99824 | -89.76277 | 36912 ft | 524 kts | 179° |
| 2026-05-06 00:23 | 22.92508 | -89.75893 | 36914 ft | 523 kts | 179° |
| 2026-05-06 00:24 | 22.85184 | -89.75509 | 36907 ft | 524 kts | 178° |
| 2026-05-06 00:24 | 22.78007 | -89.73982 | 36908 ft | 527 kts | 161° |
| 2026-05-06 00:25 | 22.71501 | -89.70327 | 36911 ft | 531 kts | 144° |
| 2026-05-06 00:25 | 22.66171 | -89.64790 | 36911 ft | 532 kts | 127° |
| 2026-05-06 00:26 | 22.62522 | -89.57869 | 36913 ft | 531 kts | 110° |
| 2026-05-06 00:26 | 22.60227 | -89.50288 | 36913 ft | 530 kts | 106° |
| 2026-05-06 00:27 | 22.58016 | -89.42682 | 36917 ft | 531 kts | 106° |
| 2026-05-06 00:27 | 22.55773 | -89.35030 | 36916 ft | 530 kts | 106° |
| 2026-05-06 00:28 | 22.53542 | -89.27464 | 36911 ft | 530 kts | 107° |